sensor_id;sensor_type;location;lat;lon;timestamp;temperature;humidity
11664;DHT22;72375;59.302;18.204;2024-01-25T00:02:01;4.00;99.90
11664;DHT22;72375;59.302;18.204;2024-01-25T00:04:47;4.00;99.90
11664;DHT22;72375;59.302;18.204;2024-01-25T00:07:33;4.00;99.90
11664;DHT22;72375;59.302;18.204;2024-01-25T00:10:19;4.00;99.90
11664;DHT22;72375;59.302;18.204;2024-01-25T00:13:04;4.00;99.90
11664;DHT22;72375;59.302;18.204;2024-01-25T00:15:50;4.00;99.90
11664;DHT22;72375;59.302;18.204;2024-01-25T00:18:37;4.00;99.90
11664;DHT22;72375;59.302;18.204;2024-01-25T00:21:22;4.00;99.90
11664;DHT22;72375;59.302;18.204;2024-01-25T00:24:08;4.00;99.90
11664;DHT22;72375;59.302;18.204;2024-01-25T00:26:54;4.50;99.90
11664;DHT22;72375;59.302;18.204;2024-01-25T00:29:39;4.00;99.90
11664;DHT22;72375;59.302;18.204;2024-01-25T00:32:25;4.00;99.90
11664;DHT22;72375;59.302;18.204;2024-01-25T00:35:14;4.00;99.90
11664;DHT22;72375;59.302;18.204;2024-01-25T00:38:00;4.00;99.90
11664;DHT22;72375;59.302;18.204;2024-01-25T00:40:46;4.00;99.90
11664;DHT22;72375;59.302;18.204;2024-01-25T00:43:32;4.00;99.90
11664;DHT22;72375;59.302;18.204;2024-01-25T00:46:18;4.00;99.90
11664;DHT22;72375;59.302;18.204;2024-01-25T00:49:04;4.00;99.90
11664;DHT22;72375;59.302;18.204;2024-01-25T00:51:58;4.00;99.90
11664;DHT22;72375;59.302;18.204;2024-01-25T00:54:44;4.00;99.90
11664;DHT22;72375;59.302;18.204;2024-01-25T00:57:30;4.00;99.90
11664;DHT22;72375;59.302;18.204;2024-01-25T01:00:16;4.00;99.90
11664;DHT22;72375;59.302;18.204;2024-01-25T01:03:04;4.00;99.90
11664;DHT22;72375;59.302;18.204;2024-01-25T01:05:50;4.00;99.90
11664;DHT22;72375;59.302;18.204;2024-01-25T01:08:38;3.90;99.90
11664;DHT22;72375;59.302;18.204;2024-01-25T01:11:23;4.00;99.90
11664;DHT22;72375;59.302;18.204;2024-01-25T01:14:09;4.00;99.90
11664;DHT22;72375;59.302;18.204;2024-01-25T01:16:54;4.00;99.90
11664;DHT22;72375;59.302;18.204;2024-01-25T01:19:40;3.90;99.90
11664;DHT22;72375;59.302;18.204;2024-01-25T01:22:25;3.90;99.90
11664;DHT22;72375;59.302;18.204;2024-01-25T01:25:12;4.00;99.90
11664;DHT22;72375;59.302;18.204;2024-01-25T01:27:58;4.00;99.90
11664;DHT22;72375;59.302;18.204;2024-01-25T01:30:44;4.00;99.90
11664;DHT22;72375;59.302;18.204;2024-01-25T01:33:30;4.00;99.90
11664;DHT22;72375;59.302;18.204;2024-01-25T01:36:15;4.00;99.90
11664;DHT22;72375;59.302;18.204;2024-01-25T01:39:01;4.00;99.90
11664;DHT22;72375;59.302;18.204;2024-01-25T01:41:48;4.00;99.90
11664;DHT22;72375;59.302;18.204;2024-01-25T01:44:34;4.00;99.90
11664;DHT22;72375;59.302;18.204;2024-01-25T01:47:20;4.10;99.90
11664;DHT22;72375;59.302;18.204;2024-01-25T01:50:06;4.10;99.90
11664;DHT22;72375;59.302;18.204;2024-01-25T01:52:52;4.00;99.90
11664;DHT22;72375;59.302;18.204;2024-01-25T01:55:38;4.00;99.90
11664;DHT22;72375;59.302;18.204;2024-01-25T01:58:27;4.00;99.90
11664;DHT22;72375;59.302;18.204;2024-01-25T02:01:13;4.00;99.90
11664;DHT22;72375;59.302;18.204;2024-01-25T02:03:59;3.90;99.90
11664;DHT22;72375;59.302;18.204;2024-01-25T02:06:45;3.90;99.90
11664;DHT22;72375;59.302;18.204;2024-01-25T02:09:30;3.90;99.90
11664;DHT22;72375;59.302;18.204;2024-01-25T02:12:16;3.90;99.90
11664;DHT22;72375;59.302;18.204;2024-01-25T02:15:04;3.90;99.90
11664;DHT22;72375;59.302;18.204;2024-01-25T02:17:50;3.90;99.90
11664;DHT22;72375;59.302;18.204;2024-01-25T02:20:36;3.90;99.90
11664;DHT22;72375;59.302;18.204;2024-01-25T02:23:23;3.90;99.90
11664;DHT22;72375;59.302;18.204;2024-01-25T02:26:08;4.00;99.90
11664;DHT22;72375;59.302;18.204;2024-01-25T02:28:54;3.90;99.90
11664;DHT22;72375;59.302;18.204;2024-01-25T02:31:40;3.90;99.90
11664;DHT22;72375;59.302;18.204;2024-01-25T02:34:26;3.90;99.90
11664;DHT22;72375;59.302;18.204;2024-01-25T02:37:11;3.90;99.90
11664;DHT22;72375;59.302;18.204;2024-01-25T02:40:00;3.90;99.90
11664;DHT22;72375;59.302;18.204;2024-01-25T02:42:45;3.90;99.90
11664;DHT22;72375;59.302;18.204;2024-01-25T02:45:31;3.90;99.90
11664;DHT22;72375;59.302;18.204;2024-01-25T02:48:17;4.00;99.90
11664;DHT22;72375;59.302;18.204;2024-01-25T02:51:02;3.90;99.90
11664;DHT22;72375;59.302;18.204;2024-01-25T02:53:48;3.90;99.90
11664;DHT22;72375;59.302;18.204;2024-01-25T02:56:35;4.00;99.90
11664;DHT22;72375;59.302;18.204;2024-01-25T02:59:21;3.90;99.90
11664;DHT22;72375;59.302;18.204;2024-01-25T03:02:06;3.90;99.90
11664;DHT22;72375;59.302;18.204;2024-01-25T03:04:52;3.90;99.90
11664;DHT22;72375;59.302;18.204;2024-01-25T03:07:38;3.90;99.90
11664;DHT22;72375;59.302;18.204;2024-01-25T03:10:24;3.90;99.90
11664;DHT22;72375;59.302;18.204;2024-01-25T03:13:11;3.90;99.90
11664;DHT22;72375;59.302;18.204;2024-01-25T03:15:56;3.90;99.90
11664;DHT22;72375;59.302;18.204;2024-01-25T03:18:42;3.90;99.90
11664;DHT22;72375;59.302;18.204;2024-01-25T03:21:28;3.90;99.90
11664;DHT22;72375;59.302;18.204;2024-01-25T03:24:13;3.80;99.90
11664;DHT22;72375;59.302;18.204;2024-01-25T03:26:59;3.90;99.90
11664;DHT22;72375;59.302;18.204;2024-01-25T03:29:46;3.90;99.90
11664;DHT22;72375;59.302;18.204;2024-01-25T03:32:32;4.00;99.90
11664;DHT22;72375;59.302;18.204;2024-01-25T03:35:18;3.80;99.90
11664;DHT22;72375;59.302;18.204;2024-01-25T03:38:04;3.80;99.90
11664;DHT22;72375;59.302;18.204;2024-01-25T03:40:49;3.80;99.90
11664;DHT22;72375;59.302;18.204;2024-01-25T03:43:35;3.80;99.90
11664;DHT22;72375;59.302;18.204;2024-01-25T03:46:22;3.80;99.90
11664;DHT22;72375;59.302;18.204;2024-01-25T03:49:09;3.80;99.90
11664;DHT22;72375;59.302;18.204;2024-01-25T03:51:54;3.90;99.90
11664;DHT22;72375;59.302;18.204;2024-01-25T03:54:40;3.80;99.90
11664;DHT22;72375;59.302;18.204;2024-01-25T03:57:25;3.80;99.90
11664;DHT22;72375;59.302;18.204;2024-01-25T04:00:12;3.70;99.90
11664;DHT22;72375;59.302;18.204;2024-01-25T04:02:59;3.70;99.90
11664;DHT22;72375;59.302;18.204;2024-01-25T04:05:44;3.70;99.90
11664;DHT22;72375;59.302;18.204;2024-01-25T04:08:30;3.70;99.90
11664;DHT22;72375;59.302;18.204;2024-01-25T04:11:16;3.70;99.90
11664;DHT22;72375;59.302;18.204;2024-01-25T04:14:01;3.70;99.90
11664;DHT22;72375;59.302;18.204;2024-01-25T04:16:47;3.70;99.90
11664;DHT22;72375;59.302;18.204;2024-01-25T04:19:35;3.70;99.90
11664;DHT22;72375;59.302;18.204;2024-01-25T04:22:21;3.60;99.90
11664;DHT22;72375;59.302;18.204;2024-01-25T04:25:07;3.70;99.90
11664;DHT22;72375;59.302;18.204;2024-01-25T04:27:53;3.70;99.90
11664;DHT22;72375;59.302;18.204;2024-01-25T04:30:39;3.70;99.90
11664;DHT22;72375;59.302;18.204;2024-01-25T04:33:25;3.90;99.90
11664;DHT22;72375;59.302;18.204;2024-01-25T04:36:12;3.60;99.90
11664;DHT22;72375;59.302;18.204;2024-01-25T04:38:57;3.60;99.90
11664;DHT22;72375;59.302;18.204;2024-01-25T04:41:43;3.70;99.90
11664;DHT22;72375;59.302;18.204;2024-01-25T04:44:28;3.60;99.90
11664;DHT22;72375;59.302;18.204;2024-01-25T04:47:14;3.60;99.90
11664;DHT22;72375;59.302;18.204;2024-01-25T04:50:00;3.60;99.90
11664;DHT22;72375;59.302;18.204;2024-01-25T04:52:47;3.60;99.90
11664;DHT22;72375;59.302;18.204;2024-01-25T04:55:32;3.60;99.90
11664;DHT22;72375;59.302;18.204;2024-01-25T04:58:18;4.10;99.90
11664;DHT22;72375;59.302;18.204;2024-01-25T05:01:04;3.90;99.90
11664;DHT22;72375;59.302;18.204;2024-01-25T05:03:51;3.60;99.90
11664;DHT22;72375;59.302;18.204;2024-01-25T05:06:36;3.60;99.90
11664;DHT22;72375;59.302;18.204;2024-01-25T05:09:23;3.60;99.90
11664;DHT22;72375;59.302;18.204;2024-01-25T05:12:09;3.60;99.90
11664;DHT22;72375;59.302;18.204;2024-01-25T05:14:55;3.60;99.90
11664;DHT22;72375;59.302;18.204;2024-01-25T05:17:40;3.90;99.90
11664;DHT22;72375;59.302;18.204;2024-01-25T05:20:26;3.60;99.90
11664;DHT22;72375;59.302;18.204;2024-01-25T05:23:16;3.50;99.90
11664;DHT22;72375;59.302;18.204;2024-01-25T05:26:03;3.50;99.90
11664;DHT22;72375;59.302;18.204;2024-01-25T05:28:49;3.60;99.90
11664;DHT22;72375;59.302;18.204;2024-01-25T05:31:35;3.60;99.90
11664;DHT22;72375;59.302;18.204;2024-01-25T05:34:21;3.60;99.90
11664;DHT22;72375;59.302;18.204;2024-01-25T05:37:06;3.50;99.90
11664;DHT22;72375;59.302;18.204;2024-01-25T05:39:52;3.50;99.90
11664;DHT22;72375;59.302;18.204;2024-01-25T05:42:39;3.60;99.90
11664;DHT22;72375;59.302;18.204;2024-01-25T05:45:25;3.50;99.90
11664;DHT22;72375;59.302;18.204;2024-01-25T05:48:11;3.50;99.90
11664;DHT22;72375;59.302;18.204;2024-01-25T05:50:57;3.50;99.90
11664;DHT22;72375;59.302;18.204;2024-01-25T05:53:42;3.60;99.90
11664;DHT22;72375;59.302;18.204;2024-01-25T05:56:28;3.50;99.90
11664;DHT22;72375;59.302;18.204;2024-01-25T05:59:15;3.50;99.90
11664;DHT22;72375;59.302;18.204;2024-01-25T06:02:00;3.50;99.90
11664;DHT22;72375;59.302;18.204;2024-01-25T06:04:46;3.50;99.90
11664;DHT22;72375;59.302;18.204;2024-01-25T06:07:31;3.60;99.90
11664;DHT22;72375;59.302;18.204;2024-01-25T06:10:17;3.50;99.90
11664;DHT22;72375;59.302;18.204;2024-01-25T06:13:03;3.50;99.90
11664;DHT22;72375;59.302;18.204;2024-01-25T06:15:50;3.50;99.90
11664;DHT22;72375;59.302;18.204;2024-01-25T06:18:36;3.10;99.90
11664;DHT22;72375;59.302;18.204;2024-01-25T06:21:21;3.50;99.90
11664;DHT22;72375;59.302;18.204;2024-01-25T06:24:07;3.40;99.90
11664;DHT22;72375;59.302;18.204;2024-01-25T06:26:53;3.40;99.90
11664;DHT22;72375;59.302;18.204;2024-01-25T06:29:38;3.50;99.90
11664;DHT22;72375;59.302;18.204;2024-01-25T06:32:25;3.50;99.90
11664;DHT22;72375;59.302;18.204;2024-01-25T06:35:10;3.40;99.90
11664;DHT22;72375;59.302;18.204;2024-01-25T06:37:56;3.50;99.90
11664;DHT22;72375;59.302;18.204;2024-01-25T06:40:42;3.40;99.90
11664;DHT22;72375;59.302;18.204;2024-01-25T06:43:27;3.40;99.90
11664;DHT22;72375;59.302;18.204;2024-01-25T06:46:13;3.40;99.90
11664;DHT22;72375;59.302;18.204;2024-01-25T06:49:00;3.40;99.90
11664;DHT22;72375;59.302;18.204;2024-01-25T06:51:46;3.40;99.90
11664;DHT22;72375;59.302;18.204;2024-01-25T06:54:32;3.40;99.90
11664;DHT22;72375;59.302;18.204;2024-01-25T06:57:18;3.50;99.90
11664;DHT22;72375;59.302;18.204;2024-01-25T07:00:05;3.40;99.90
11664;DHT22;72375;59.302;18.204;2024-01-25T07:02:52;3.40;99.90
11664;DHT22;72375;59.302;18.204;2024-01-25T07:05:39;3.40;99.90
11664;DHT22;72375;59.302;18.204;2024-01-25T07:08:24;3.40;99.90
11664;DHT22;72375;59.302;18.204;2024-01-25T07:11:10;3.40;99.90
11664;DHT22;72375;59.302;18.204;2024-01-25T07:13:56;3.40;99.90
11664;DHT22;72375;59.302;18.204;2024-01-25T07:16:41;3.50;99.90
11664;DHT22;72375;59.302;18.204;2024-01-25T07:19:27;3.40;99.90
11664;DHT22;72375;59.302;18.204;2024-01-25T07:22:14;3.40;99.90
11664;DHT22;72375;59.302;18.204;2024-01-25T07:25:01;3.50;99.90
11664;DHT22;72375;59.302;18.204;2024-01-25T07:27:47;3.30;99.90
11664;DHT22;72375;59.302;18.204;2024-01-25T07:30:33;3.40;99.90
11664;DHT22;72375;59.302;18.204;2024-01-25T07:33:19;3.30;99.90
11664;DHT22;72375;59.302;18.204;2024-01-25T07:36:05;3.30;99.90
11664;DHT22;72375;59.302;18.204;2024-01-25T07:38:52;3.30;99.90
11664;DHT22;72375;59.302;18.204;2024-01-25T07:41:37;3.30;99.90
11664;DHT22;72375;59.302;18.204;2024-01-25T07:44:23;3.30;99.90
11664;DHT22;72375;59.302;18.204;2024-01-25T07:47:09;3.30;99.90
11664;DHT22;72375;59.302;18.204;2024-01-25T07:49:55;3.50;99.90
11664;DHT22;72375;59.302;18.204;2024-01-25T07:52:40;3.30;99.90
11664;DHT22;72375;59.302;18.204;2024-01-25T07:55:28;3.60;99.90
11664;DHT22;72375;59.302;18.204;2024-01-25T07:58:14;3.30;99.90
11664;DHT22;72375;59.302;18.204;2024-01-25T08:01:02;3.30;99.90
11664;DHT22;72375;59.302;18.204;2024-01-25T08:03:49;3.30;99.90
11664;DHT22;72375;59.302;18.204;2024-01-25T08:06:34;3.30;99.90
11664;DHT22;72375;59.302;18.204;2024-01-25T08:09:20;3.40;99.90
11664;DHT22;72375;59.302;18.204;2024-01-25T08:12:07;3.30;99.90
11664;DHT22;72375;59.302;18.204;2024-01-25T08:14:53;3.40;99.90
11664;DHT22;72375;59.302;18.204;2024-01-25T08:17:39;3.40;99.90
11664;DHT22;72375;59.302;18.204;2024-01-25T08:20:24;3.40;99.90
11664;DHT22;72375;59.302;18.204;2024-01-25T08:23:10;3.40;99.90
11664;DHT22;72375;59.302;18.204;2024-01-25T08:25:56;3.40;99.90
11664;DHT22;72375;59.302;18.204;2024-01-25T08:28:43;3.40;99.90
11664;DHT22;72375;59.302;18.204;2024-01-25T08:31:28;3.40;99.90
11664;DHT22;72375;59.302;18.204;2024-01-25T08:34:14;3.40;99.90
11664;DHT22;72375;59.302;18.204;2024-01-25T08:37:00;3.40;99.90
11664;DHT22;72375;59.302;18.204;2024-01-25T08:39:45;3.70;99.90
11664;DHT22;72375;59.302;18.204;2024-01-25T08:42:34;3.50;99.90
11664;DHT22;72375;59.302;18.204;2024-01-25T08:45:21;3.50;99.90
11664;DHT22;72375;59.302;18.204;2024-01-25T08:48:07;3.50;99.90
11664;DHT22;72375;59.302;18.204;2024-01-25T08:50:53;3.50;99.90
11664;DHT22;72375;59.302;18.204;2024-01-25T08:53:39;3.50;99.90
11664;DHT22;72375;59.302;18.204;2024-01-25T08:56:25;3.50;99.90
11664;DHT22;72375;59.302;18.204;2024-01-25T08:59:10;3.50;99.90
11664;DHT22;72375;59.302;18.204;2024-01-25T09:01:58;3.50;99.90
11664;DHT22;72375;59.302;18.204;2024-01-25T09:04:44;3.50;99.90
11664;DHT22;72375;59.302;18.204;2024-01-25T09:07:29;3.60;99.90
11664;DHT22;72375;59.302;18.204;2024-01-25T09:10:15;3.60;99.90
11664;DHT22;72375;59.302;18.204;2024-01-25T09:13:01;3.60;99.90
11664;DHT22;72375;59.302;18.204;2024-01-25T09:15:47;3.60;99.90
11664;DHT22;72375;59.302;18.204;2024-01-25T09:18:34;3.60;99.90
11664;DHT22;72375;59.302;18.204;2024-01-25T09:21:19;3.60;99.90
11664;DHT22;72375;59.302;18.204;2024-01-25T09:24:05;3.60;99.90
11664;DHT22;72375;59.302;18.204;2024-01-25T09:26:51;3.60;99.90
11664;DHT22;72375;59.302;18.204;2024-01-25T09:29:36;3.60;99.90
11664;DHT22;72375;59.302;18.204;2024-01-25T09:32:23;3.60;99.90
11664;DHT22;72375;59.302;18.204;2024-01-25T09:35:10;3.70;99.90
11664;DHT22;72375;59.302;18.204;2024-01-25T09:37:56;3.70;99.90
11664;DHT22;72375;59.302;18.204;2024-01-25T09:40:42;3.70;99.90
11664;DHT22;72375;59.302;18.204;2024-01-25T09:43:27;3.70;99.90
11664;DHT22;72375;59.302;18.204;2024-01-25T09:46:13;3.70;99.90
11664;DHT22;72375;59.302;18.204;2024-01-25T09:48:59;3.70;99.90
11664;DHT22;72375;59.302;18.204;2024-01-25T09:51:47;3.70;99.90
11664;DHT22;72375;59.302;18.204;2024-01-25T09:54:35;3.70;99.90
11664;DHT22;72375;59.302;18.204;2024-01-25T09:57:24;3.60;99.90
11664;DHT22;72375;59.302;18.204;2024-01-25T10:00:12;3.60;99.90
11664;DHT22;72375;59.302;18.204;2024-01-25T10:02:58;3.70;99.90
11664;DHT22;72375;59.302;18.204;2024-01-25T10:05:43;3.70;99.90
11664;DHT22;72375;59.302;18.204;2024-01-25T10:08:30;3.70;99.90
11664;DHT22;72375;59.302;18.204;2024-01-25T10:11:16;3.30;99.90
11664;DHT22;72375;59.302;18.204;2024-01-25T10:14:02;3.70;99.90
11664;DHT22;72375;59.302;18.204;2024-01-25T10:16:47;4.30;99.90
11664;DHT22;72375;59.302;18.204;2024-01-25T10:19:34;3.70;99.90
11664;DHT22;72375;59.302;18.204;2024-01-25T10:22:20;3.80;99.90
11664;DHT22;72375;59.302;18.204;2024-01-25T10:25:12;4.20;99.90
11664;DHT22;72375;59.302;18.204;2024-01-25T10:27:58;3.80;99.90
11664;DHT22;72375;59.302;18.204;2024-01-25T10:30:44;3.90;99.90
11664;DHT22;72375;59.302;18.204;2024-01-25T10:33:30;3.80;99.90
11664;DHT22;72375;59.302;18.204;2024-01-25T10:36:16;3.80;99.90
11664;DHT22;72375;59.302;18.204;2024-01-25T10:39:03;3.80;99.90
11664;DHT22;72375;59.302;18.204;2024-01-25T10:41:52;3.80;99.90
11664;DHT22;72375;59.302;18.204;2024-01-25T10:44:38;3.80;99.90
11664;DHT22;72375;59.302;18.204;2024-01-25T10:47:23;3.90;99.90
11664;DHT22;72375;59.302;18.204;2024-01-25T10:50:09;3.80;99.90
11664;DHT22;72375;59.302;18.204;2024-01-25T10:52:57;3.80;99.90
11664;DHT22;72375;59.302;18.204;2024-01-25T10:55:44;3.90;99.90
11664;DHT22;72375;59.302;18.204;2024-01-25T10:58:32;4.40;99.90
11664;DHT22;72375;59.302;18.204;2024-01-25T11:01:20;3.90;99.90
11664;DHT22;72375;59.302;18.204;2024-01-25T11:04:12;3.80;99.90
11664;DHT22;72375;59.302;18.204;2024-01-25T11:07:06;3.80;99.90
11664;DHT22;72375;59.302;18.204;2024-01-25T11:09:52;3.80;99.90
11664;DHT22;72375;59.302;18.204;2024-01-25T11:12:48;3.90;99.90
11664;DHT22;72375;59.302;18.204;2024-01-25T11:15:36;3.70;99.90
11664;DHT22;72375;59.302;18.204;2024-01-25T11:18:25;3.70;99.90
11664;DHT22;72375;59.302;18.204;2024-01-25T11:21:10;3.70;99.90
11664;DHT22;72375;59.302;18.204;2024-01-25T11:24:01;3.80;99.90
11664;DHT22;72375;59.302;18.204;2024-01-25T11:26:47;3.70;99.90
11664;DHT22;72375;59.302;18.204;2024-01-25T11:29:33;3.70;99.90
11664;DHT22;72375;59.302;18.204;2024-01-25T11:32:20;3.70;99.90
11664;DHT22;72375;59.302;18.204;2024-01-25T11:35:08;3.70;99.90
11664;DHT22;72375;59.302;18.204;2024-01-25T11:37:54;3.70;99.90
11664;DHT22;72375;59.302;18.204;2024-01-25T11:40:41;3.70;99.90
11664;DHT22;72375;59.302;18.204;2024-01-25T11:43:27;3.70;99.90
11664;DHT22;72375;59.302;18.204;2024-01-25T11:46:12;3.70;99.90
11664;DHT22;72375;59.302;18.204;2024-01-25T11:48:59;3.70;99.90
11664;DHT22;72375;59.302;18.204;2024-01-25T11:51:45;3.70;99.90
11664;DHT22;72375;59.302;18.204;2024-01-25T11:54:31;3.70;99.90
11664;DHT22;72375;59.302;18.204;2024-01-25T11:57:16;3.60;99.90
11664;DHT22;72375;59.302;18.204;2024-01-25T12:00:03;3.60;99.90
11664;DHT22;72375;59.302;18.204;2024-01-25T12:02:49;3.60;99.90
11664;DHT22;72375;59.302;18.204;2024-01-25T12:05:36;3.60;99.90
11664;DHT22;72375;59.302;18.204;2024-01-25T12:08:22;3.60;99.90
11664;DHT22;72375;59.302;18.204;2024-01-25T12:11:08;3.60;99.90
11664;DHT22;72375;59.302;18.204;2024-01-25T12:13:54;4.20;99.90
11664;DHT22;72375;59.302;18.204;2024-01-25T12:16:40;3.60;99.90
11664;DHT22;72375;59.302;18.204;2024-01-25T12:19:26;3.60;99.90
11664;DHT22;72375;59.302;18.204;2024-01-25T12:22:21;3.60;99.90
11664;DHT22;72375;59.302;18.204;2024-01-25T12:25:07;3.60;99.90
11664;DHT22;72375;59.302;18.204;2024-01-25T12:27:53;3.60;99.90
11664;DHT22;72375;59.302;18.204;2024-01-25T12:30:39;3.60;99.90
11664;DHT22;72375;59.302;18.204;2024-01-25T12:33:24;3.50;99.90
11664;DHT22;72375;59.302;18.204;2024-01-25T12:36:10;3.40;99.90
11664;DHT22;72375;59.302;18.204;2024-01-25T12:38:57;3.40;99.90
11664;DHT22;72375;59.302;18.204;2024-01-25T12:41:42;3.40;99.90
11664;DHT22;72375;59.302;18.204;2024-01-25T12:44:28;3.40;99.90
11664;DHT22;72375;59.302;18.204;2024-01-25T12:47:14;3.40;99.90
11664;DHT22;72375;59.302;18.204;2024-01-25T12:49:59;3.40;99.90
11664;DHT22;72375;59.302;18.204;2024-01-25T12:52:45;3.40;99.90
11664;DHT22;72375;59.302;18.204;2024-01-25T12:55:33;3.40;99.90
11664;DHT22;72375;59.302;18.204;2024-01-25T12:58:18;3.40;99.90
11664;DHT22;72375;59.302;18.204;2024-01-25T13:01:04;3.40;99.90
11664;DHT22;72375;59.302;18.204;2024-01-25T13:03:50;3.40;99.90
11664;DHT22;72375;59.302;18.204;2024-01-25T13:06:36;3.40;99.90
11664;DHT22;72375;59.302;18.204;2024-01-25T13:09:22;3.40;99.90
11664;DHT22;72375;59.302;18.204;2024-01-25T13:12:09;3.40;99.90
11664;DHT22;72375;59.302;18.204;2024-01-25T13:14:55;3.40;99.90
11664;DHT22;72375;59.302;18.204;2024-01-25T13:17:41;3.40;99.90
11664;DHT22;72375;59.302;18.204;2024-01-25T13:20:27;3.40;99.90
11664;DHT22;72375;59.302;18.204;2024-01-25T13:23:12;3.40;99.90
11664;DHT22;72375;59.302;18.204;2024-01-25T13:25:58;3.40;99.90
11664;DHT22;72375;59.302;18.204;2024-01-25T13:28:45;3.40;99.90
11664;DHT22;72375;59.302;18.204;2024-01-25T13:31:30;3.40;99.90
11664;DHT22;72375;59.302;18.204;2024-01-25T13:34:16;3.30;99.90
11664;DHT22;72375;59.302;18.204;2024-01-25T13:37:02;3.30;99.90
11664;DHT22;72375;59.302;18.204;2024-01-25T13:39:47;3.30;99.90
11664;DHT22;72375;59.302;18.204;2024-01-25T13:42:33;3.30;99.90
11664;DHT22;72375;59.302;18.204;2024-01-25T13:45:20;3.30;99.90
11664;DHT22;72375;59.302;18.204;2024-01-25T13:48:06;3.20;99.90
11664;DHT22;72375;59.302;18.204;2024-01-25T13:50:52;3.20;99.90
11664;DHT22;72375;59.302;18.204;2024-01-25T13:53:38;3.20;99.90
11664;DHT22;72375;59.302;18.204;2024-01-25T13:56:23;3.20;99.90
11664;DHT22;72375;59.302;18.204;2024-01-25T13:59:09;3.30;99.90
11664;DHT22;72375;59.302;18.204;2024-01-25T14:01:56;3.70;99.90
11664;DHT22;72375;59.302;18.204;2024-01-25T14:04:42;3.60;99.90
11664;DHT22;72375;59.302;18.204;2024-01-25T14:07:27;3.10;99.90
11664;DHT22;72375;59.302;18.204;2024-01-25T14:10:13;3.10;99.90
11664;DHT22;72375;59.302;18.204;2024-01-25T14:12:59;3.10;99.90
11664;DHT22;72375;59.302;18.204;2024-01-25T14:15:44;3.10;99.90
11664;DHT22;72375;59.302;18.204;2024-01-25T14:18:36;3.10;99.90
11664;DHT22;72375;59.302;18.204;2024-01-25T14:21:22;3.10;99.90
11664;DHT22;72375;59.302;18.204;2024-01-25T14:24:08;3.00;99.90
11664;DHT22;72375;59.302;18.204;2024-01-25T14:26:54;3.00;99.90
11664;DHT22;72375;59.302;18.204;2024-01-25T14:29:39;3.00;99.90
11664;DHT22;72375;59.302;18.204;2024-01-25T14:32:25;3.00;99.90
11664;DHT22;72375;59.302;18.204;2024-01-25T14:35:12;3.00;99.90
11664;DHT22;72375;59.302;18.204;2024-01-25T14:37:58;2.90;99.90
11664;DHT22;72375;59.302;18.204;2024-01-25T14:40:43;2.90;99.90
11664;DHT22;72375;59.302;18.204;2024-01-25T14:43:29;2.80;99.90
11664;DHT22;72375;59.302;18.204;2024-01-25T14:46:15;2.80;99.90
11664;DHT22;72375;59.302;18.204;2024-01-25T14:49:00;2.80;99.90
11664;DHT22;72375;59.302;18.204;2024-01-25T14:51:47;2.80;99.90
11664;DHT22;72375;59.302;18.204;2024-01-25T14:54:33;2.80;99.90
11664;DHT22;72375;59.302;18.204;2024-01-25T14:57:19;2.80;99.90
11664;DHT22;72375;59.302;18.204;2024-01-25T15:00:06;2.70;99.90
11664;DHT22;72375;59.302;18.204;2024-01-25T15:02:52;2.70;99.90
11664;DHT22;72375;59.302;18.204;2024-01-25T15:05:38;2.90;99.90
11664;DHT22;72375;59.302;18.204;2024-01-25T15:08:24;2.70;99.90
11664;DHT22;72375;59.302;18.204;2024-01-25T15:11:10;2.70;99.90
11664;DHT22;72375;59.302;18.204;2024-01-25T15:13:56;2.70;99.90
11664;DHT22;72375;59.302;18.204;2024-01-25T15:16:41;2.70;99.90
11664;DHT22;72375;59.302;18.204;2024-01-25T15:19:27;2.60;99.90
11664;DHT22;72375;59.302;18.204;2024-01-25T15:22:13;2.60;99.90
11664;DHT22;72375;59.302;18.204;2024-01-25T15:25:00;2.60;99.90
11664;DHT22;72375;59.302;18.204;2024-01-25T15:27:45;2.60;99.90
11664;DHT22;72375;59.302;18.204;2024-01-25T15:30:31;2.60;99.90
11664;DHT22;72375;59.302;18.204;2024-01-25T15:33:16;2.60;99.90
11664;DHT22;72375;59.302;18.204;2024-01-25T15:36:02;2.60;99.90
11664;DHT22;72375;59.302;18.204;2024-01-25T15:38:48;2.60;99.90
11664;DHT22;72375;59.302;18.204;2024-01-25T15:41:36;2.60;99.90
11664;DHT22;72375;59.302;18.204;2024-01-25T15:44:21;2.50;99.90
11664;DHT22;72375;59.302;18.204;2024-01-25T15:47:07;2.50;99.90
11664;DHT22;72375;59.302;18.204;2024-01-25T15:49:53;2.50;99.90
11664;DHT22;72375;59.302;18.204;2024-01-25T15:52:38;2.50;99.90
11664;DHT22;72375;59.302;18.204;2024-01-25T15:55:24;2.50;99.90
11664;DHT22;72375;59.302;18.204;2024-01-25T15:58:11;2.50;99.90
11664;DHT22;72375;59.302;18.204;2024-01-25T16:00:56;2.50;99.90
11664;DHT22;72375;59.302;18.204;2024-01-25T16:03:42;2.50;99.90
11664;DHT22;72375;59.302;18.204;2024-01-25T16:06:28;2.40;99.90
11664;DHT22;72375;59.302;18.204;2024-01-25T16:09:14;2.40;99.90
11664;DHT22;72375;59.302;18.204;2024-01-25T16:11:59;2.40;99.90
11664;DHT22;72375;59.302;18.204;2024-01-25T16:14:46;2.50;99.90
11664;DHT22;72375;59.302;18.204;2024-01-25T16:17:32;2.40;99.90
11664;DHT22;72375;59.302;18.204;2024-01-25T16:20:17;2.90;99.90
11664;DHT22;72375;59.302;18.204;2024-01-25T16:23:05;2.40;99.90
11664;DHT22;72375;59.302;18.204;2024-01-25T16:25:51;2.40;99.90
11664;DHT22;72375;59.302;18.204;2024-01-25T16:28:37;2.40;99.90
11664;DHT22;72375;59.302;18.204;2024-01-25T16:31:24;2.40;99.90
11664;DHT22;72375;59.302;18.204;2024-01-25T16:34:10;2.40;99.90
11664;DHT22;72375;59.302;18.204;2024-01-25T16:36:55;3.00;99.90
11664;DHT22;72375;59.302;18.204;2024-01-25T16:39:41;2.40;99.90
11664;DHT22;72375;59.302;18.204;2024-01-25T16:42:27;2.40;99.90
11664;DHT22;72375;59.302;18.204;2024-01-25T16:45:12;2.40;99.90
11664;DHT22;72375;59.302;18.204;2024-01-25T16:47:59;2.40;99.90
11664;DHT22;72375;59.302;18.204;2024-01-25T16:50:45;2.30;99.90
11664;DHT22;72375;59.302;18.204;2024-01-25T16:53:31;2.30;99.90
11664;DHT22;72375;59.302;18.204;2024-01-25T16:56:17;2.30;99.90
11664;DHT22;72375;59.302;18.204;2024-01-25T16:59:02;2.30;99.90
11664;DHT22;72375;59.302;18.204;2024-01-25T17:01:48;2.30;99.90
11664;DHT22;72375;59.302;18.204;2024-01-25T17:04:35;2.30;99.90
11664;DHT22;72375;59.302;18.204;2024-01-25T17:07:21;2.30;99.90
11664;DHT22;72375;59.302;18.204;2024-01-25T17:10:07;2.30;99.90
11664;DHT22;72375;59.302;18.204;2024-01-25T17:12:53;2.30;99.90
11664;DHT22;72375;59.302;18.204;2024-01-25T17:15:40;2.30;99.90
11664;DHT22;72375;59.302;18.204;2024-01-25T17:18:25;2.40;99.90
11664;DHT22;72375;59.302;18.204;2024-01-25T17:21:12;2.30;99.90
11664;DHT22;72375;59.302;18.204;2024-01-25T17:23:58;2.30;99.90
11664;DHT22;72375;59.302;18.204;2024-01-25T17:26:44;2.30;99.90
11664;DHT22;72375;59.302;18.204;2024-01-25T17:29:29;2.20;99.90